createdAt,value
2023-03-19T00:00:46.622Z,100166.66
2023-03-19T00:01:49.192Z,100162.53
2023-03-19T00:02:52.395Z,100170.50
2023-03-19T00:03:55.469Z,100169.63
2023-03-19T00:04:57.079Z,100176.03
2023-03-19T00:05:59.658Z,100163.66
2023-03-19T00:07:02.633Z,100167.53
2023-03-19T00:08:05.567Z,100169.75
2023-03-19T00:09:07.356Z,100164.91
2023-03-19T00:10:10.534Z,100162.22
2023-03-19T00:11:13.611Z,100166.38
2023-03-19T00:12:16.236Z,100165.75
2023-03-19T00:13:18.489Z,100166.59
2023-03-19T00:14:21.349Z,100161.97
2023-03-19T00:15:23.151Z,100158.78
2023-03-19T00:16:25.844Z,100162.63
2023-03-19T00:17:27.808Z,100163.72
2023-03-19T00:18:30.696Z,100163.97
2023-03-19T00:19:32.234Z,100156.50
2023-03-19T00:20:35.120Z,100159.41
2023-03-19T00:21:36.767Z,100159.63
2023-03-19T00:22:40.889Z,100148.53
2023-03-19T00:23:42.841Z,100158.09
2023-03-19T00:24:45.652Z,100148.63
2023-03-19T00:25:47.431Z,100158.84
2023-03-19T00:26:50.100Z,100155.66
2023-03-19T00:27:52.838Z,100155.81
2023-03-19T00:28:56.148Z,100153.84
2023-03-19T00:29:57.800Z,100154.94
2023-03-19T00:31:08.549Z,100150.09
2023-03-19T00:32:10.134Z,100150.69
2023-03-19T00:33:13.120Z,100155.41
2023-03-19T00:34:18.309Z,100154.81
2023-03-19T00:35:20.827Z,100141.16
2023-03-19T00:36:23.405Z,100148.63
2023-03-19T00:37:26.071Z,100157.00
2023-03-19T00:38:29.281Z,100147.97
2023-03-19T00:39:32.236Z,100148.19
2023-03-19T00:40:33.770Z,100151.38
2023-03-19T00:41:36.334Z,100151.94
2023-03-19T00:42:37.888Z,100154.88
2023-03-19T00:43:41.187Z,100156.28
2023-03-19T00:44:42.812Z,100159.19
2023-03-19T00:45:45.438Z,100161.22
2023-03-19T00:46:47.081Z,100154.47
2023-03-19T00:47:49.659Z,100152.50
2023-03-19T00:48:55.571Z,100155.63
2023-03-19T00:49:58.087Z,100153.22
2023-03-19T00:51:02.919Z,100151.47
2023-03-19T00:52:05.935Z,100152.06
2023-03-19T00:53:07.635Z,100146.72
2023-03-19T00:54:14.820Z,100146.47
2023-03-19T00:55:16.786Z,100151.59
2023-03-19T00:56:20.151Z,100156.88
2023-03-19T00:57:22.325Z,100155.19
2023-03-19T00:58:25.081Z,100153.75
2023-03-19T00:59:26.848Z,100161.22
2023-03-19T01:00:29.731Z,100153.81
2023-03-19T01:01:32.096Z,100151.78
2023-03-19T01:02:34.631Z,100156.63
2023-03-19T01:03:36.727Z,100160.56
2023-03-19T01:04:39.549Z,100158.41
2023-03-19T01:05:41.505Z,100164.03
2023-03-19T01:06:44.104Z,100171.41
2023-03-19T01:07:46.048Z,100171.03
2023-03-19T01:08:48.897Z,100165.88
2023-03-19T01:09:52.054Z,100162.28
2023-03-19T01:10:54.847Z,100164.56
2023-03-19T01:11:57.033Z,100169.03
2023-03-19T01:12:59.495Z,100161.16
2023-03-19T01:14:01.561Z,100165.97
2023-03-19T01:15:06.970Z,100167.19
2023-03-19T01:16:08.833Z,100165.44
2023-03-19T01:17:11.427Z,100161.38
2023-03-19T01:18:13.261Z,100156.56
2023-03-19T01:19:16.404Z,100169.88
2023-03-19T01:20:19.110Z,100161.81
2023-03-19T01:21:22.387Z,100168.88
2023-03-19T01:22:23.931Z,100164.69
2023-03-19T01:23:26.478Z,100170.53
2023-03-19T01:24:29.680Z,100167.47
2023-03-19T01:25:34.257Z,100172.09
2023-03-19T01:26:35.946Z,100167.88
2023-03-19T01:27:38.475Z,100169.81
2023-03-19T01:28:40.037Z,100164.72
2023-03-19T01:29:42.732Z,100170.28
2023-03-19T01:30:44.738Z,100160.66
2023-03-19T01:31:47.244Z,100166.81
2023-03-19T01:32:49.007Z,100161.38
2023-03-19T01:33:52.701Z,100169.22
2023-03-19T01:34:54.330Z,100169.25
2023-03-19T01:35:58.031Z,100167.50
2023-03-19T01:36:59.566Z,100174.47
2023-03-19T01:38:05.065Z,100177.16
2023-03-19T01:39:07.035Z,100172.56
2023-03-19T01:40:13.282Z,100176.19
2023-03-19T01:41:16.401Z,100173.97
2023-03-19T01:42:19.180Z,100179.38
2023-03-19T01:43:22.989Z,100179.22
2023-03-19T01:44:27.706Z,100174.94
2023-03-19T01:45:36.761Z,100172.63
2023-03-19T01:46:40.376Z,100176.19
2023-03-19T01:47:44.349Z,100172.53
2023-03-19T01:48:50.891Z,100170.56
2023-03-19T01:49:54.700Z,100169.94
2023-03-19T01:50:58.943Z,100169.03
2023-03-19T01:52:04.713Z,100163.66
2023-03-19T01:53:09.074Z,100163.56
2023-03-19T01:54:14.678Z,100161.06
2023-03-19T01:55:17.341Z,100159.22
2023-03-19T01:56:24.191Z,100162.69
2023-03-19T01:57:27.172Z,100163.72
2023-03-19T01:58:29.260Z,100166.13
2023-03-19T01:59:35.771Z,100162.69
2023-03-19T02:00:39.046Z,100160.88
2023-03-19T02:01:48.142Z,100158.38
2023-03-19T02:02:53.611Z,100161.50
2023-03-19T02:03:57.286Z,100156.13
2023-03-19T02:05:02.887Z,100155.69
2023-03-19T02:06:06.384Z,100155.41
2023-03-19T02:07:09.394Z,100149.94
2023-03-19T02:08:16.038Z,100149.34
2023-03-19T02:09:19.479Z,100152.16
2023-03-19T02:10:23.703Z,100149.44
2023-03-19T02:11:28.110Z,100155.63
2023-03-19T02:12:29.656Z,100155.41
2023-03-19T02:13:32.281Z,100162.81
2023-03-19T02:14:34.098Z,100163.63
2023-03-19T02:15:36.773Z,100162.06
2023-03-19T02:16:38.359Z,100157.22
2023-03-19T02:17:42.004Z,100159.28
2023-03-19T02:18:44.620Z,100154.81
2023-03-19T02:19:52.387Z,100154.88
2023-03-19T02:21:01.171Z,100153.06
2023-03-19T02:22:05.581Z,100147.34
2023-03-19T02:23:14.385Z,100153.97
2023-03-19T02:24:21.009Z,100151.41
2023-03-19T02:25:31.006Z,100150.78
2023-03-19T02:26:35.939Z,100150.22
2023-03-19T02:27:37.948Z,100154.78
2023-03-19T02:28:44.185Z,100153.88
2023-03-19T02:29:46.062Z,100153.81
2023-03-19T02:30:48.906Z,100154.09
2023-03-19T02:31:50.884Z,100155.88
2023-03-19T02:32:53.568Z,100153.22
2023-03-19T02:33:59.509Z,100159.50
2023-03-19T02:35:02.090Z,100153.81
2023-03-19T02:36:06.389Z,100160.31
2023-03-19T02:37:14.011Z,100165.09
2023-03-19T02:38:16.089Z,100151.94
2023-03-19T02:39:23.689Z,100161.13
2023-03-19T02:40:30.108Z,100160.22
2023-03-19T02:41:35.325Z,100159.16
2023-03-19T02:42:37.205Z,100165.53
2023-03-19T02:43:41.962Z,100166.97
2023-03-19T02:44:43.529Z,100164.66
2023-03-19T02:45:46.245Z,100159.53
2023-03-19T02:46:47.859Z,100152.66
2023-03-19T02:47:50.579Z,100154.00
2023-03-19T02:48:52.602Z,100157.09
2023-03-19T02:49:55.272Z,100156.22
2023-03-19T02:50:57.047Z,100155.41
2023-03-19T02:51:59.580Z,100156.16
2023-03-19T02:53:01.274Z,100155.28
2023-03-19T02:54:03.905Z,100154.63
2023-03-19T02:55:06.636Z,100157.28
2023-03-19T02:56:09.613Z,100154.03
2023-03-19T02:57:12.712Z,100152.88
2023-03-19T02:58:15.530Z,100160.41
2023-03-19T02:59:17.065Z,100148.72
2023-03-19T03:00:21.066Z,100162.53
2023-03-19T03:01:23.034Z,100156.63
2023-03-19T03:02:26.454Z,100154.78
2023-03-19T03:03:28.148Z,100153.38
2023-03-19T03:04:30.946Z,100165.97
2023-03-19T03:05:33.100Z,100171.22
2023-03-19T03:06:35.621Z,100179.38
2023-03-19T03:07:37.689Z,100179.31
2023-03-19T03:08:40.343Z,100183.31
2023-03-19T03:09:42.093Z,100178.66
2023-03-19T03:10:44.995Z,100179.91
2023-03-19T03:11:47.133Z,100174.03
2023-03-19T03:12:51.580Z,100174.56
2023-03-19T03:13:53.340Z,100172.91
2023-03-19T03:14:56.019Z,100174.38
2023-03-19T03:15:57.654Z,100171.13
2023-03-19T03:17:00.465Z,100173.72
2023-03-19T03:18:02.050Z,100173.59
2023-03-19T03:19:04.852Z,100177.59
2023-03-19T03:20:08.209Z,100179.16
2023-03-19T03:21:11.756Z,100177.88
2023-03-19T03:22:13.252Z,100178.78
2023-03-19T03:23:15.761Z,100178.97
2023-03-19T03:24:17.305Z,100188.91
2023-03-19T03:25:21.060Z,100184.59
2023-03-19T03:26:22.631Z,100186.16
2023-03-19T03:27:25.155Z,100184.03
2023-03-19T03:28:28.152Z,100188.13
2023-03-19T03:29:30.696Z,100178.31
2023-03-19T03:30:32.804Z,100184.28
2023-03-19T03:31:35.715Z,100173.97
2023-03-19T03:32:38.959Z,100181.56
2023-03-19T03:33:41.637Z,100179.50
2023-03-19T03:34:43.512Z,100181.22
2023-03-19T03:35:46.406Z,100188.09
2023-03-19T03:36:47.946Z,100181.41
2023-03-19T03:37:51.267Z,100170.41
2023-03-19T03:38:53.690Z,100185.69
2023-03-19T03:39:56.187Z,100182.34
2023-03-19T03:40:57.659Z,100180.41
2023-03-19T03:42:00.109Z,100186.91
2023-03-19T03:43:02.426Z,100181.50
2023-03-19T03:44:06.797Z,100192.81
2023-03-19T03:45:10.677Z,100188.78
2023-03-19T03:46:13.726Z,100200.75
2023-03-19T03:47:15.385Z,100197.63
2023-03-19T03:48:18.563Z,100200.56
2023-03-19T03:49:20.516Z,100203.69
2023-03-19T03:50:22.996Z,100195.09
2023-03-19T03:51:26.126Z,100195.31
2023-03-19T03:52:31.537Z,100194.56
2023-03-19T03:53:34.134Z,100189.44
2023-03-19T03:54:35.899Z,100193.75
2023-03-19T03:55:38.715Z,100187.25
2023-03-19T03:56:40.344Z,100189.41
2023-03-19T03:57:42.840Z,100194.88
2023-03-19T03:58:44.634Z,100196.47
2023-03-19T03:59:48.439Z,100191.06
2023-03-19T04:00:50.694Z,100191.28
2023-03-19T04:01:53.262Z,100189.84
2023-03-19T04:02:54.951Z,100187.66
2023-03-19T04:03:57.904Z,100193.66
2023-03-19T04:04:59.416Z,100199.72
2023-03-19T04:06:01.993Z,100202.75
2023-03-19T04:07:03.487Z,100201.38
2023-03-19T04:08:08.690Z,100198.09
2023-03-19T04:09:10.225Z,100198.63
2023-03-19T04:10:14.040Z,100195.13
2023-03-19T04:11:15.592Z,100194.31
2023-03-19T04:12:18.138Z,100188.28
2023-03-19T04:13:20.565Z,100190.72
2023-03-19T04:14:23.025Z,100200.28
2023-03-19T04:15:26.095Z,100198.66
2023-03-19T04:16:29.299Z,100203.78
2023-03-19T04:17:30.852Z,100208.88
2023-03-19T04:18:33.560Z,100193.09
2023-03-19T04:19:35.434Z,100209.94
2023-03-19T04:20:38.020Z,100210.19
2023-03-19T04:21:39.669Z,100216.66
2023-03-19T04:22:42.139Z,100213.84
2023-03-19T04:23:43.658Z,100206.56
2023-03-19T04:24:46.430Z,100214.69
2023-03-19T04:25:48.241Z,100204.88
2023-03-19T04:26:51.124Z,100211.09
2023-03-19T04:27:52.921Z,100207.56
2023-03-19T04:28:55.739Z,100202.06
2023-03-19T04:29:57.290Z,100208.13
2023-03-19T04:31:02.054Z,100194.88
2023-03-19T04:32:04.249Z,100203.00
2023-03-19T04:33:06.974Z,100205.72
2023-03-19T04:34:08.593Z,100203.81
2023-03-19T04:35:11.981Z,100199.22
2023-03-19T04:36:13.766Z,100197.53
2023-03-19T04:37:16.277Z,100204.56
2023-03-19T04:38:18.166Z,100200.56
2023-03-19T04:39:20.921Z,100188.06
2023-03-19T04:40:22.554Z,100205.19
2023-03-19T04:41:26.037Z,100203.28
2023-03-19T04:42:27.623Z,100202.72
2023-03-19T04:43:30.149Z,100210.09
2023-03-19T04:44:32.094Z,100209.94
2023-03-19T04:45:34.864Z,100201.97
2023-03-19T04:46:38.277Z,100211.72
2023-03-19T04:47:40.760Z,100206.53
2023-03-19T04:48:42.667Z,100212.78
2023-03-19T04:49:45.286Z,100212.22
2023-03-19T04:50:47.386Z,100206.53
2023-03-19T04:51:50.001Z,100216.88
2023-03-19T04:52:51.728Z,100216.03
2023-03-19T04:53:54.886Z,100228.72
2023-03-19T04:54:56.446Z,100238.13
2023-03-19T04:55:58.948Z,100229.41
2023-03-19T04:57:01.011Z,100228.06
2023-03-19T04:58:03.869Z,100233.47
2023-03-19T04:59:05.469Z,100236.69
2023-03-19T05:00:09.812Z,100232.91
2023-03-19T05:01:12.173Z,100229.94
2023-03-19T05:02:16.085Z,100232.94
2023-03-19T05:03:17.640Z,100230.78
2023-03-19T05:04:20.640Z,100222.13
2023-03-19T05:05:22.243Z,100225.69
2023-03-19T05:06:24.708Z,100224.31
2023-03-19T05:07:26.491Z,100226.47
2023-03-19T05:08:29.026Z,100229.53
2023-03-19T05:09:30.954Z,100222.66
2023-03-19T05:10:34.778Z,100216.13
2023-03-19T05:11:37.204Z,100215.31
2023-03-19T05:12:40.063Z,100222.38
2023-03-19T05:13:41.550Z,100232.63
2023-03-19T05:14:44.105Z,100224.75
2023-03-19T05:15:46.384Z,100232.00
2023-03-19T05:16:48.955Z,100228.56
2023-03-19T05:17:51.906Z,100223.50
2023-03-19T05:18:54.429Z,100230.94
2023-03-19T05:19:57.047Z,100236.16
2023-03-19T05:20:59.839Z,100228.28
2023-03-19T05:22:01.427Z,100236.16
2023-03-19T05:23:04.511Z,100231.81
2023-03-19T05:24:06.136Z,100230.72
2023-03-19T05:25:09.743Z,100232.66
2023-03-19T05:26:11.756Z,100229.91
2023-03-19T05:27:14.506Z,100231.19
2023-03-19T05:28:16.227Z,100229.59
2023-03-19T05:29:18.748Z,100238.91
2023-03-19T05:30:20.421Z,100236.63
2023-03-19T05:31:23.677Z,100243.22
2023-03-19T05:32:25.566Z,100242.28
2023-03-19T05:33:29.472Z,100233.72
2023-03-19T05:34:31.466Z,100242.91
2023-03-19T05:35:34.728Z,100238.41
2023-03-19T05:36:36.305Z,100237.63
2023-03-19T05:37:38.754Z,100238.50
2023-03-19T05:38:40.693Z,100234.44
2023-03-19T05:39:43.245Z,100243.50
2023-03-19T05:40:45.065Z,100239.72
2023-03-19T05:41:47.754Z,100250.88
2023-03-19T05:42:49.833Z,100251.97
2023-03-19T05:43:52.285Z,100247.59
2023-03-19T05:44:53.879Z,100249.78
2023-03-19T05:45:56.932Z,100255.22
2023-03-19T05:46:58.444Z,100251.41
2023-03-19T05:48:00.963Z,100258.78
2023-03-19T05:49:03.896Z,100254.69
2023-03-19T05:50:07.131Z,100251.19
2023-03-19T05:51:09.326Z,100249.09
2023-03-19T05:52:12.099Z,100252.19
2023-03-19T05:53:13.978Z,100253.00
2023-03-19T05:54:16.554Z,100251.94
2023-03-19T05:55:18.227Z,100256.00
2023-03-19T05:56:20.860Z,100246.72
2023-03-19T05:57:22.362Z,100245.38
2023-03-19T05:58:25.176Z,100249.75
2023-03-19T05:59:26.721Z,100250.31
2023-03-19T06:00:29.242Z,100248.41
2023-03-19T06:01:31.040Z,100253.56
2023-03-19T06:02:34.101Z,100245.88
2023-03-19T06:03:37.262Z,100256.47
2023-03-19T06:04:40.231Z,100257.09
2023-03-19T06:05:43.011Z,100259.84
2023-03-19T06:06:44.567Z,100256.59
2023-03-19T06:07:47.083Z,100259.00
2023-03-19T06:08:49.034Z,100253.56
2023-03-19T06:09:51.926Z,100261.44
2023-03-19T06:10:53.866Z,100260.66
2023-03-19T06:11:56.540Z,100262.34
2023-03-19T06:12:58.151Z,100262.91
2023-03-19T06:14:00.896Z,100267.22
2023-03-19T06:15:02.722Z,100263.88
2023-03-19T06:16:06.231Z,100271.91
2023-03-19T06:17:09.260Z,100271.81
2023-03-19T06:18:11.899Z,100271.94
2023-03-19T06:19:13.422Z,100277.44
2023-03-19T06:20:17.806Z,100273.38
2023-03-19T06:21:20.751Z,100273.94
2023-03-19T06:22:22.579Z,100272.75
2023-03-19T06:23:25.085Z,100274.31
2023-03-19T06:24:26.942Z,100278.47
2023-03-19T06:25:29.524Z,100279.53
2023-03-19T06:26:31.195Z,100280.59
2023-03-19T06:27:33.691Z,100273.03
2023-03-19T06:28:35.195Z,100275.31
2023-03-19T06:29:37.839Z,100278.59
2023-03-19T06:30:40.414Z,100277.78
2023-03-19T06:31:41.956Z,100279.66
2023-03-19T06:32:44.529Z,100279.06
2023-03-19T06:33:46.065Z,100279.59
2023-03-19T06:34:48.544Z,100275.00
2023-03-19T06:35:51.516Z,100279.59
2023-03-19T06:36:54.388Z,100276.63
2023-03-19T06:37:56.025Z,100269.31
2023-03-19T06:38:58.534Z,100276.03
2023-03-19T06:40:00.353Z,100270.81
2023-03-19T06:41:02.944Z,100269.16
2023-03-19T06:42:04.857Z,100271.88
2023-03-19T06:43:07.350Z,100268.13
2023-03-19T06:44:08.898Z,100272.16
2023-03-19T06:45:12.502Z,100283.88
2023-03-19T06:46:14.162Z,100281.41
2023-03-19T06:47:16.774Z,100277.91
2023-03-19T06:48:18.906Z,100275.44
2023-03-19T06:49:21.961Z,100275.28
2023-03-19T06:50:23.583Z,100276.38
2023-03-19T06:51:27.714Z,100269.78
2023-03-19T06:52:29.297Z,100277.31
2023-03-19T06:53:32.309Z,100278.63
2023-03-19T06:54:33.856Z,100280.50
2023-03-19T06:55:37.500Z,100282.56
2023-03-19T06:56:40.017Z,100277.44
2023-03-19T06:57:41.674Z,100273.66
2023-03-19T06:58:44.187Z,100274.31
2023-03-19T06:59:46.026Z,100285.75
2023-03-19T07:00:48.748Z,100287.56
2023-03-19T07:01:50.364Z,100280.91
2023-03-19T07:02:52.914Z,100292.25
2023-03-19T07:03:54.511Z,100290.19
2023-03-19T07:04:57.468Z,100290.78
2023-03-19T07:05:59.163Z,100285.91
2023-03-19T07:07:05.339Z,100285.53
2023-03-19T07:08:11.772Z,100284.00
2023-03-19T07:09:14.520Z,100288.09
2023-03-19T07:10:18.614Z,100278.06
2023-03-19T07:11:21.153Z,100285.97
2023-03-19T07:12:22.726Z,100292.00
2023-03-19T07:13:25.583Z,100287.44
2023-03-19T07:14:28.165Z,100292.94
2023-03-19T07:15:29.917Z,100290.94
2023-03-19T07:16:32.877Z,100284.16
2023-03-19T07:17:34.600Z,100284.59
2023-03-19T07:18:39.780Z,100287.31
2023-03-19T07:19:42.340Z,100284.91
2023-03-19T07:20:43.982Z,100285.19
2023-03-19T07:21:46.774Z,100276.25
2023-03-19T07:22:51.759Z,100285.38
2023-03-19T07:23:54.312Z,100282.59
2023-03-19T07:24:55.826Z,100285.78
2023-03-19T07:25:58.571Z,100286.72
2023-03-19T07:27:02.332Z,100288.47
2023-03-19T07:28:04.448Z,100288.81
2023-03-19T07:29:07.218Z,100293.78
2023-03-19T07:30:10.056Z,100294.56
2023-03-19T07:31:13.170Z,100296.28
2023-03-19T07:32:15.143Z,100292.00
2023-03-19T07:33:17.886Z,100294.16
2023-03-19T07:34:19.390Z,100292.84
2023-03-19T07:35:22.491Z,100290.31
2023-03-19T07:36:24.100Z,100291.09
2023-03-19T07:37:26.560Z,100293.03
2023-03-19T07:38:30.467Z,100291.88
2023-03-19T07:39:32.336Z,100297.22
2023-03-19T07:40:35.192Z,100302.38
2023-03-19T07:41:37.089Z,100301.97
2023-03-19T07:42:40.065Z,100303.97
2023-03-19T07:43:41.583Z,100302.94
2023-03-19T07:44:44.086Z,100299.94
2023-03-19T07:45:45.619Z,100306.53
2023-03-19T07:46:48.083Z,100302.94
2023-03-19T07:47:50.439Z,100309.69
2023-03-19T07:48:56.317Z,100298.88
2023-03-19T07:49:59.265Z,100306.72
2023-03-19T07:51:01.855Z,100304.72
2023-03-19T07:52:04.561Z,100308.69
2023-03-19T07:53:06.445Z,100309.31
2023-03-19T07:54:10.295Z,100303.56
2023-03-19T07:55:11.834Z,100311.78
2023-03-19T07:56:14.391Z,100308.03
2023-03-19T07:57:16.598Z,100307.41
2023-03-19T07:58:19.473Z,100300.84
2023-03-19T07:59:22.181Z,100295.34
2023-03-19T08:00:24.162Z,100310.09
2023-03-19T08:01:27.082Z,100306.13
2023-03-19T08:02:28.650Z,100307.84
2023-03-19T08:03:31.307Z,100307.13
2023-03-19T08:04:32.923Z,100303.56
2023-03-19T08:05:35.488Z,100308.97
2023-03-19T08:06:38.648Z,100309.34
2023-03-19T08:07:41.330Z,100313.91
2023-03-19T08:08:44.060Z,100316.41
2023-03-19T08:09:47.115Z,100310.13
2023-03-19T08:10:52.674Z,100311.34
2023-03-19T08:11:54.222Z,100309.50
2023-03-19T08:12:56.739Z,100313.53
2023-03-19T08:13:58.285Z,100303.31
2023-03-19T08:15:01.216Z,100308.47
2023-03-19T08:16:02.973Z,100317.16
2023-03-19T08:17:05.700Z,100307.03
2023-03-19T08:18:07.646Z,100309.44
2023-03-19T08:19:10.096Z,100310.09
2023-03-19T08:20:14.331Z,100312.88
2023-03-19T08:21:16.949Z,100317.66
2023-03-19T08:22:18.730Z,100320.31
2023-03-19T08:23:21.197Z,100315.97
2023-03-19T08:24:23.097Z,100318.47
2023-03-19T08:25:27.439Z,100314.84
2023-03-19T08:26:29.938Z,100312.41
2023-03-19T08:27:31.599Z,100313.53
2023-03-19T08:28:34.198Z,100312.50
2023-03-19T08:29:36.027Z,100314.53
2023-03-19T08:30:38.827Z,100317.06
2023-03-19T08:31:40.755Z,100317.91
2023-03-19T08:32:44.848Z,100319.22
2023-03-19T08:33:47.106Z,100319.44
2023-03-19T08:34:49.887Z,100320.34
2023-03-19T08:35:53.006Z,100317.84
2023-03-19T08:36:54.908Z,100322.91
2023-03-19T08:37:57.699Z,100321.69
2023-03-19T08:38:59.564Z,100320.59
2023-03-19T08:40:02.083Z,100321.53
2023-03-19T08:41:06.348Z,100325.00
2023-03-19T08:42:08.849Z,100320.63
2023-03-19T08:43:11.314Z,100322.97
2023-03-19T08:44:13.090Z,100323.16
2023-03-19T08:45:17.090Z,100320.03
2023-03-19T08:46:18.937Z,100318.56
2023-03-19T08:47:24.371Z,100316.78
2023-03-19T08:48:27.089Z,100311.66
2023-03-19T08:49:28.647Z,100318.44
2023-03-19T08:50:31.151Z,100313.25
2023-03-19T08:51:32.763Z,100323.13
2023-03-19T08:52:35.700Z,100324.50
2023-03-19T08:53:38.631Z,100326.00
2023-03-19T08:54:41.100Z,100326.97
2023-03-19T08:55:43.996Z,100326.22
2023-03-19T08:56:48.060Z,100324.56
2023-03-19T08:57:49.579Z,100330.50
2023-03-19T08:58:54.785Z,100323.72
2023-03-19T08:59:56.358Z,100328.25
2023-03-19T09:01:02.951Z,100324.38
2023-03-19T09:02:05.927Z,100326.44
2023-03-19T09:03:07.625Z,100327.00
2023-03-19T09:04:10.150Z,100329.13
2023-03-19T09:05:11.751Z,100330.09
2023-03-19T09:06:15.694Z,100331.19
2023-03-19T09:07:17.410Z,100327.72
2023-03-19T09:08:20.377Z,100333.63
2023-03-19T09:09:24.621Z,100335.53
2023-03-19T09:10:27.327Z,100338.88
2023-03-19T09:11:29.887Z,100327.91
2023-03-19T09:12:33.945Z,100337.78
2023-03-19T09:13:36.688Z,100333.44
2023-03-19T09:14:39.868Z,100327.84
2023-03-19T09:15:42.570Z,100324.59
2023-03-19T09:16:44.138Z,100332.91
2023-03-19T09:17:46.844Z,100326.59
2023-03-19T09:18:48.617Z,100317.34
2023-03-19T09:19:51.161Z,100331.94
2023-03-19T09:20:53.835Z,100329.94
2023-03-19T09:21:56.572Z,100330.91
2023-03-19T09:22:58.118Z,100332.00
2023-03-19T09:24:00.914Z,100330.22
2023-03-19T09:25:02.804Z,100326.94
2023-03-19T09:26:05.724Z,100340.22
2023-03-19T09:27:07.399Z,100328.88
2023-03-19T09:28:11.342Z,100336.38
2023-03-19T09:29:13.134Z,100336.09
2023-03-19T09:30:15.982Z,100336.47
2023-03-19T09:31:17.855Z,100338.91
2023-03-19T09:32:20.970Z,100336.53
2023-03-19T09:33:22.619Z,100342.53
2023-03-19T09:34:25.782Z,100339.50
2023-03-19T09:35:31.330Z,100331.03
2023-03-19T09:36:34.586Z,100341.13
2023-03-19T09:37:36.741Z,100336.38
2023-03-19T09:38:39.578Z,100341.31
2023-03-19T09:39:42.253Z,100347.25
2023-03-19T09:40:47.218Z,100343.63
2023-03-19T09:42:03.888Z,100346.50
2023-03-19T09:43:26.315Z,100351.00
2023-03-19T09:44:31.679Z,100351.41
2023-03-19T09:45:33.594Z,100352.69
2023-03-19T09:46:43.395Z,100352.94
2023-03-19T09:47:46.627Z,100346.44
2023-03-19T09:48:55.093Z,100353.13
2023-03-19T09:50:01.282Z,100347.66
2023-03-19T09:51:06.688Z,100352.38
2023-03-19T09:52:22.446Z,100353.38
2023-03-19T09:53:35.644Z,100350.31
2023-03-19T09:54:43.750Z,100351.34
2023-03-19T09:55:49.776Z,100349.59
2023-03-19T09:56:51.439Z,100352.94
2023-03-19T09:57:55.841Z,100350.22
2023-03-19T09:58:59.272Z,100353.97
2023-03-19T10:00:01.808Z,100354.09
2023-03-19T10:01:04.326Z,100348.75
2023-03-19T10:02:28.887Z,100349.41
2023-03-19T10:03:44.451Z,100357.53
2023-03-19T10:05:01.171Z,100359.47
2023-03-19T10:06:20.651Z,100356.34
2023-03-19T10:07:36.793Z,100346.34
2023-03-19T10:08:55.728Z,100352.16
2023-03-19T10:10:14.025Z,100345.50
2023-03-19T10:11:35.478Z,100346.00
2023-03-19T10:12:48.806Z,100348.59
2023-03-19T10:14:03.198Z,100344.53
2023-03-19T10:15:18.219Z,100346.00
2023-03-19T10:16:25.020Z,100344.22
2023-03-19T10:17:30.591Z,100344.97
2023-03-19T10:18:36.248Z,100347.41
2023-03-19T10:19:45.593Z,100354.88
2023-03-19T10:20:53.110Z,100353.56
2023-03-19T10:22:01.049Z,100349.16
2023-03-19T10:23:15.617Z,100356.97
2023-03-19T10:24:24.002Z,100354.41
2023-03-19T10:25:28.551Z,100356.38
2023-03-19T10:26:35.526Z,100352.59
2023-03-19T10:27:37.661Z,100360.91
2023-03-19T10:28:43.774Z,100360.41
2023-03-19T10:29:46.659Z,100358.59
2023-03-19T10:30:58.228Z,100346.94
2023-03-19T10:32:07.597Z,100352.47
2023-03-19T10:33:22.998Z,100362.22
2023-03-19T10:34:31.468Z,100361.41
2023-03-19T10:35:42.859Z,100357.19
2023-03-19T10:36:44.400Z,100364.00
2023-03-19T10:37:48.312Z,100354.09
2023-03-19T10:38:50.799Z,100360.84
2023-03-19T10:39:56.775Z,100357.28
2023-03-19T10:41:11.456Z,100352.59
2023-03-19T10:42:28.119Z,100354.38
2023-03-19T10:43:31.054Z,100362.22
2023-03-19T10:44:38.305Z,100364.16
2023-03-19T10:45:42.459Z,100361.09
2023-03-19T10:46:46.629Z,100363.03
2023-03-19T10:47:56.118Z,100359.78
2023-03-19T10:48:58.699Z,100348.91
2023-03-19T10:50:04.624Z,100359.09
2023-03-19T10:51:06.646Z,100353.63
2023-03-19T10:52:20.986Z,100364.63
2023-03-19T10:53:32.188Z,100362.84
2023-03-19T10:54:34.727Z,100359.78
2023-03-19T10:55:37.469Z,100370.47
2023-03-19T10:56:47.884Z,100363.50
2023-03-19T10:58:02.436Z,100352.75
2023-03-19T10:59:07.338Z,100360.75
2023-03-19T11:00:18.295Z,100375.81
2023-03-19T11:01:21.397Z,100365.94
2023-03-19T11:02:27.914Z,100360.94
2023-03-19T11:03:33.400Z,100362.88
2023-03-19T11:04:35.979Z,100364.34
2023-03-19T11:05:38.080Z,100361.72
2023-03-19T11:06:41.254Z,100372.09
2023-03-19T11:07:43.861Z,100362.59
2023-03-19T11:08:55.441Z,100373.09
2023-03-19T11:09:58.441Z,100372.91
2023-03-19T11:11:00.224Z,100381.16
2023-03-19T11:12:09.470Z,100373.16
2023-03-19T11:13:21.804Z,100373.16
2023-03-19T11:14:30.729Z,100372.38
2023-03-19T11:15:36.533Z,100376.41
2023-03-19T11:16:53.176Z,100369.66
2023-03-19T11:17:59.439Z,100376.25
2023-03-19T11:19:02.036Z,100383.16
2023-03-19T11:20:20.388Z,100380.50
2023-03-19T11:21:24.799Z,100378.38
2023-03-19T11:22:31.740Z,100378.13
2023-03-19T11:23:39.669Z,100386.44
2023-03-19T11:24:49.096Z,100388.78
2023-03-19T11:25:53.966Z,100377.00
2023-03-19T11:26:57.026Z,100385.31
2023-03-19T11:28:01.981Z,100380.41
2023-03-19T11:29:04.622Z,100392.25
2023-03-19T11:30:15.364Z,100382.22
2023-03-19T11:31:21.704Z,100388.03
2023-03-19T11:32:41.386Z,100392.50
2023-03-19T11:34:00.372Z,100392.41
2023-03-19T11:35:09.516Z,100390.09
2023-03-19T11:36:16.668Z,100386.09
2023-03-19T11:37:29.325Z,100388.00
2023-03-19T11:38:43.723Z,100384.69
2023-03-19T11:39:58.751Z,100382.66
2023-03-19T11:41:12.010Z,100390.19
2023-03-19T11:42:46.179Z,100389.94
2023-03-19T11:43:55.962Z,100380.94
2023-03-19T11:45:10.072Z,100386.84
2023-03-19T11:46:27.923Z,100401.91
2023-03-19T11:47:40.945Z,100380.03
2023-03-19T11:48:58.632Z,100398.31
2023-03-19T11:50:18.065Z,100396.22
2023-03-19T11:51:27.268Z,100396.34
2023-03-19T11:52:39.108Z,100394.69
2023-03-19T11:53:56.391Z,100398.34
2023-03-19T11:55:12.225Z,100399.75
2023-03-19T11:56:22.019Z,100398.34
2023-03-19T11:57:35.590Z,100401.59
2023-03-19T11:59:18.906Z,100399.34
2023-03-19T12:00:31.392Z,100411.72
2023-03-19T12:01:55.405Z,100406.66
2023-03-19T12:03:44.972Z,100404.97
2023-03-19T12:04:58.513Z,100406.63
2023-03-19T12:06:07.422Z,100400.19
2023-03-19T12:07:24.633Z,100400.34
2023-03-19T12:08:39.451Z,100403.78
2023-03-19T12:09:52.015Z,100393.53
2023-03-19T12:11:04.445Z,100396.34
2023-03-19T12:12:18.514Z,100397.09
2023-03-19T12:13:32.504Z,100397.44